createdAt,value
2022-12-05T00:01:57.904Z,101275.16
2022-12-05T00:04:25.510Z,101281.19
2022-12-05T00:06:53.584Z,101272.56
2022-12-05T00:09:21.786Z,101268.84
2022-12-05T00:11:50.258Z,101281.59
2022-12-05T00:14:18.095Z,101288.88
2022-12-05T00:16:46.161Z,101285.84
2022-12-05T00:19:15.817Z,101303.34
2022-12-05T00:21:43.985Z,101300.09
2022-12-05T00:24:15.065Z,101312.09
2022-12-05T00:26:43.778Z,101311.19
2022-12-05T00:29:11.862Z,101305.72
2022-12-05T00:31:40.119Z,101313.44
2022-12-05T00:34:07.863Z,101314.28
2022-12-05T00:36:36.771Z,101312.38
2022-12-05T00:39:07.854Z,101299.28
2022-12-05T00:41:35.636Z,101304.88
2022-12-05T00:44:05.529Z,101301.25
2022-12-05T00:46:35.729Z,101299.09
2022-12-05T00:49:05.802Z,101293.75
2022-12-05T00:51:40.627Z,101299.94
2022-12-05T00:54:14.831Z,101294.34
2022-12-05T00:56:43.850Z,101287.97
2022-12-05T00:59:19.333Z,101280.59
2022-12-05T01:01:49.822Z,101280.00
2022-12-05T01:04:21.488Z,101281.03
2022-12-05T01:06:50.493Z,101270.19
2022-12-05T01:09:20.736Z,101264.47
2022-12-05T01:11:49.438Z,101264.81
2022-12-05T01:14:18.748Z,101258.44
2022-12-05T01:16:48.535Z,101255.91
2022-12-05T01:19:19.708Z,101257.59
2022-12-05T01:21:47.963Z,101251.59
2022-12-05T01:24:16.556Z,101255.91
2022-12-05T01:26:45.020Z,101251.38
2022-12-05T01:29:15.444Z,101245.44
2022-12-05T01:31:43.309Z,101242.59
2022-12-05T01:34:15.817Z,101249.69
2022-12-05T01:36:43.797Z,101252.94
2022-12-05T01:39:13.646Z,101246.34
2022-12-05T01:41:47.643Z,101242.22
2022-12-05T01:44:15.868Z,101241.47
2022-12-05T01:46:49.499Z,101244.44
2022-12-05T01:49:25.825Z,101246.72
2022-12-05T01:51:59.374Z,101245.63
2022-12-05T01:54:28.795Z,101246.72
2022-12-05T01:57:01.363Z,101241.13
2022-12-05T01:59:34.962Z,101240.59
2022-12-05T02:02:04.293Z,101243.72
2022-12-05T02:04:38.668Z,101242.50
2022-12-05T02:07:06.708Z,101245.13
2022-12-05T02:09:34.610Z,101256.94
2022-12-05T02:12:03.984Z,101250.00
2022-12-05T02:14:56.242Z,101251.03
2022-12-05T02:17:42.737Z,101246.00
2022-12-05T02:20:20.305Z,101243.13
2022-12-05T02:23:09.544Z,101247.00
2022-12-05T02:25:40.722Z,101247.97
2022-12-05T02:29:00.593Z,101251.59
2022-12-05T02:31:52.515Z,101259.09
2022-12-05T02:34:36.231Z,101262.38
2022-12-05T02:37:14.507Z,101263.31
2022-12-05T02:39:48.719Z,101257.47
2022-12-05T02:42:30.628Z,101257.25
2022-12-05T02:45:05.641Z,101259.09
2022-12-05T02:47:38.979Z,101261.69
2022-12-05T02:50:09.162Z,101256.25
2022-12-05T02:52:37.573Z,101261.84
2022-12-05T02:55:08.567Z,101264.56
2022-12-05T02:57:38.988Z,101264.75
2022-12-05T03:00:07.212Z,101265.47
2022-12-05T03:02:35.204Z,101260.06
2022-12-05T03:05:19.984Z,101264.47
2022-12-05T03:07:50.953Z,101255.50
2022-12-05T03:10:24.792Z,101255.41
2022-12-05T03:12:56.173Z,101257.94
2022-12-05T03:15:31.353Z,101247.63
2022-12-05T03:18:12.617Z,101247.06
2022-12-05T03:20:53.538Z,101253.88
2022-12-05T03:23:26.824Z,101262.78
2022-12-05T03:26:00.565Z,101258.03
2022-12-05T03:28:43.668Z,101262.84
2022-12-05T03:31:14.793Z,101256.34
2022-12-05T03:33:46.515Z,101253.28
2022-12-05T03:36:23.820Z,101258.44
2022-12-05T03:38:57.809Z,101263.63
2022-12-05T03:41:49.866Z,101258.03
2022-12-05T03:44:24.701Z,101265.38
2022-12-05T03:47:06.578Z,101265.13
2022-12-05T03:50:00.837Z,101269.59
2022-12-05T03:52:56.946Z,101264.34
2022-12-05T03:55:28.485Z,101264.13
2022-12-05T03:58:02.141Z,101263.53
2022-12-05T04:00:32.445Z,101270.09
2022-12-05T04:03:06.268Z,101272.31
2022-12-05T04:05:46.730Z,101264.63
2022-12-05T04:08:20.078Z,101257.34
2022-12-05T04:10:51.411Z,101251.03
2022-12-05T04:13:53.359Z,101237.00
2022-12-05T04:16:51.379Z,101232.59
2022-12-05T04:19:54.100Z,101225.09
2022-12-05T04:22:24.203Z,101231.75
2022-12-05T04:25:13.268Z,101242.41
2022-12-05T04:27:55.791Z,101238.25
2022-12-05T04:30:26.593Z,101245.78
2022-12-05T04:33:16.697Z,101240.97
2022-12-05T04:35:53.646Z,101238.00
2022-12-05T04:38:27.387Z,101227.28
2022-12-05T04:41:01.033Z,101224.41
2022-12-05T04:43:33.665Z,101228.03
2022-12-05T04:46:05.475Z,101237.66
2022-12-05T04:48:37.563Z,101240.88
2022-12-05T04:51:09.488Z,101225.69
2022-12-05T04:53:38.137Z,101228.72
2022-12-05T04:56:06.274Z,101228.53
2022-12-05T04:58:34.594Z,101225.31
2022-12-05T05:01:17.827Z,101225.41
2022-12-05T05:03:51.818Z,101243.59
2022-12-05T05:06:19.460Z,101248.22
2022-12-05T05:08:53.371Z,101247.47
2022-12-05T05:11:25.103Z,101247.25
2022-12-05T05:13:53.540Z,101246.69
2022-12-05T05:16:24.545Z,101244.50
2022-12-05T05:18:53.150Z,101245.84
2022-12-05T05:21:27.619Z,101244.19
2022-12-05T05:23:56.346Z,101249.09
2022-12-05T05:26:25.548Z,101248.75
2022-12-05T05:28:54.403Z,101249.25
2022-12-05T05:31:21.976Z,101256.00
2022-12-05T05:33:51.451Z,101253.13
2022-12-05T05:36:19.923Z,101260.22
2022-12-05T05:38:50.662Z,101260.38
2022-12-05T05:41:20.924Z,101255.41
2022-12-05T05:43:50.437Z,101262.19
2022-12-05T05:46:20.736Z,101264.56
2022-12-05T05:48:49.186Z,101264.66
2022-12-05T05:51:18.045Z,101267.34
2022-12-05T05:53:46.130Z,101262.28
2022-12-05T05:56:21.202Z,101259.84
2022-12-05T05:58:58.213Z,101255.84
2022-12-05T06:01:25.992Z,101262.19
2022-12-05T06:03:53.762Z,101261.25
2022-12-05T06:06:22.762Z,101252.31
2022-12-05T06:08:50.826Z,101252.50
2022-12-05T06:11:25.773Z,101257.88
2022-12-05T06:14:01.147Z,101268.16
2022-12-05T06:16:30.846Z,101262.91
2022-12-05T06:18:59.399Z,101269.34
2022-12-05T06:21:27.323Z,101262.84
2022-12-05T06:23:55.158Z,101271.19
2022-12-05T06:26:23.428Z,101269.91
2022-12-05T06:28:51.481Z,101278.22
2022-12-05T06:31:22.551Z,101269.66
2022-12-05T06:33:50.804Z,101263.91
2022-12-05T06:36:21.314Z,101267.22
2022-12-05T06:38:49.276Z,101268.44
2022-12-05T06:41:19.629Z,101269.06
2022-12-05T06:43:47.912Z,101273.47
2022-12-05T06:46:16.340Z,101275.47
2022-12-05T06:48:44.677Z,101281.16
2022-12-05T06:51:15.915Z,101285.56
2022-12-05T06:53:44.299Z,101287.63
2022-12-05T06:56:15.018Z,101282.56
2022-12-05T06:58:48.666Z,101286.03
2022-12-05T07:01:37.986Z,101292.78
2022-12-05T07:04:18.007Z,101301.44
2022-12-05T07:06:51.075Z,101295.28
2022-12-05T07:09:22.063Z,101289.81
2022-12-05T07:11:51.224Z,101290.59
2022-12-05T07:14:45.766Z,101283.66
2022-12-05T07:17:06.867Z,101281.56
2022-12-05T07:19:35.495Z,101284.34
2022-12-05T07:22:03.499Z,101283.41
2022-12-05T07:24:31.437Z,101283.50
2022-12-05T07:26:58.957Z,101291.84
2022-12-05T07:29:26.445Z,101278.47
2022-12-05T07:31:54.457Z,101284.88
2022-12-05T07:34:22.676Z,101283.88
2022-12-05T07:36:50.751Z,101286.56
2022-12-05T07:39:18.727Z,101291.56
2022-12-05T07:41:46.246Z,101292.00
2022-12-05T07:44:17.753Z,101291.19
2022-12-05T07:46:45.288Z,101286.50
2022-12-05T07:49:12.783Z,101291.44
2022-12-05T07:51:41.381Z,101293.72
2022-12-05T07:54:08.987Z,101298.13
2022-12-05T07:56:36.763Z,101305.81
2022-12-05T07:59:04.746Z,101295.06
2022-12-05T08:01:32.491Z,101307.00
2022-12-05T08:04:00.716Z,101300.69
2022-12-05T08:06:30.922Z,101306.69
2022-12-05T08:08:58.491Z,101296.53
2022-12-05T08:11:31.363Z,101293.84
2022-12-05T08:13:59.330Z,101302.88
2022-12-05T08:16:33.178Z,101313.47
2022-12-05T08:19:06.487Z,101317.28
2022-12-05T08:21:34.800Z,101315.31
2022-12-05T08:24:05.593Z,101307.03
2022-12-05T08:26:35.665Z,101310.59
2022-12-05T08:29:09.873Z,101312.94
2022-12-05T08:31:44.694Z,101299.81
2022-12-05T08:34:14.899Z,101297.63
2022-12-05T08:36:43.205Z,101298.03
2022-12-05T08:39:15.065Z,101299.81
2022-12-05T08:41:44.201Z,101292.66
2022-12-05T08:44:16.459Z,101298.28
2022-12-05T08:46:47.337Z,101299.75
2022-12-05T08:49:16.916Z,101293.41
2022-12-05T08:51:45.286Z,101288.84
2022-12-05T08:54:13.203Z,101288.03
2022-12-05T08:56:40.912Z,101286.72
2022-12-05T08:59:08.505Z,101293.00
2022-12-05T09:01:39.527Z,101295.44
2022-12-05T09:04:07.929Z,101298.38
2022-12-05T09:06:36.093Z,101311.50
2022-12-05T09:09:06.989Z,101315.00
2022-12-05T09:11:38.148Z,101316.31
2022-12-05T09:14:06.180Z,101305.50
2022-12-05T09:16:38.518Z,101312.50
2022-12-05T09:19:16.603Z,101312.78
2022-12-05T09:21:44.376Z,101319.28
2022-12-05T09:24:14.198Z,101312.50
2022-12-05T09:26:42.044Z,101313.31
2022-12-05T09:29:16.626Z,101317.25
2022-12-05T09:31:50.157Z,101317.44
2022-12-05T09:34:20.032Z,101302.41
2022-12-05T09:36:55.840Z,101293.50
2022-12-05T09:39:29.223Z,101289.06
2022-12-05T09:42:28.249Z,101284.28
2022-12-05T09:45:09.525Z,101276.19
2022-12-05T09:48:07.244Z,101271.81
2022-12-05T09:50:46.009Z,101271.19
2022-12-05T09:53:28.779Z,101256.16
2022-12-05T09:56:02.546Z,101257.03
2022-12-05T09:58:33.527Z,101255.31
2022-12-05T10:01:27.623Z,101251.09
2022-12-05T10:04:02.027Z,101265.88
2022-12-05T10:06:39.228Z,101270.59
2022-12-05T10:09:53.543Z,101266.13
2022-12-05T10:12:48.059Z,101264.16
2022-12-05T10:15:33.911Z,101260.25
2022-12-05T10:18:13.275Z,101261.09
2022-12-05T10:20:51.316Z,101257.66
2022-12-05T10:23:55.646Z,101253.50
2022-12-05T10:26:15.989Z,101263.69
2022-12-05T10:28:56.661Z,101280.53
2022-12-05T10:31:29.854Z,101288.56
2022-12-05T10:34:04.262Z,101277.41
2022-12-05T10:36:32.283Z,101271.69
2022-12-05T10:39:00.052Z,101278.94
2022-12-05T10:41:29.121Z,101265.03
2022-12-05T10:43:59.137Z,101268.50
2022-12-05T10:46:27.473Z,101259.94
2022-12-05T10:48:55.008Z,101259.00
2022-12-05T10:51:31.310Z,101262.16
2022-12-05T10:54:17.568Z,101260.72
2022-12-05T10:56:51.582Z,101248.38
2022-12-05T10:59:21.991Z,101233.72
2022-12-05T11:01:54.786Z,101217.97
2022-12-05T11:04:32.417Z,101201.09
2022-12-05T11:07:02.975Z,101208.09
2022-12-05T11:09:33.947Z,101195.59
2022-12-05T11:12:01.771Z,101192.16
2022-12-05T11:14:30.014Z,101194.28
2022-12-05T11:17:00.121Z,101183.09
2022-12-05T11:19:32.430Z,101192.34
2022-12-05T11:22:00.780Z,101191.28
2022-12-05T11:24:37.743Z,101180.41
2022-12-05T11:27:17.393Z,101189.00
2022-12-05T11:29:55.650Z,101185.09
2022-12-05T11:32:29.309Z,101184.88
2022-12-05T11:35:20.936Z,101184.91
2022-12-05T11:38:04.674Z,101190.38
2022-12-05T11:40:40.324Z,101184.59
2022-12-05T11:43:39.526Z,101175.44
2022-12-05T11:46:34.513Z,101168.03
2022-12-05T11:49:40.044Z,101154.06
2022-12-05T11:52:41.250Z,101151.28
2022-12-05T11:55:15.144Z,101148.06
2022-12-05T11:58:16.543Z,101146.66
2022-12-05T12:01:08.884Z,101142.38
2022-12-05T12:03:53.218Z,101145.03
2022-12-05T12:06:26.746Z,101149.19
2022-12-05T12:09:06.799Z,101147.53
2022-12-05T12:11:47.362Z,101144.16
2022-12-05T12:14:47.363Z,101145.72
2022-12-05T12:17:33.280Z,101135.56
2022-12-05T12:20:34.997Z,101141.13
2022-12-05T12:23:14.570Z,101128.94
2022-12-05T12:26:04.291Z,101124.00
2022-12-05T12:28:41.721Z,101126.41
2022-12-05T12:31:24.622Z,101125.63
2022-12-05T12:33:52.285Z,101122.03
2022-12-05T12:36:31.785Z,101124.84
2022-12-05T12:39:17.570Z,101119.00
2022-12-05T12:42:07.486Z,101116.56
2022-12-05T12:44:40.887Z,101112.81
2022-12-05T12:47:40.134Z,101117.22
2022-12-05T12:50:38.879Z,101110.53
2022-12-05T12:53:30.843Z,101105.66
2022-12-05T12:56:09.582Z,101102.63
2022-12-05T12:59:09.459Z,101096.63
2022-12-05T13:01:49.692Z,101102.19
2022-12-05T13:04:40.562Z,101109.69
2022-12-05T13:07:15.582Z,101109.06
2022-12-05T13:10:34.854Z,101114.53
2022-12-05T13:13:06.628Z,101109.25
2022-12-05T13:15:48.637Z,101107.56
2022-12-05T13:18:18.870Z,101116.00
2022-12-05T13:20:51.346Z,101104.41
2022-12-05T13:23:22.550Z,101105.69
2022-12-05T13:25:53.576Z,101096.34
2022-12-05T13:28:26.993Z,101094.09
2022-12-05T13:31:02.583Z,101095.06
2022-12-05T13:33:50.976Z,101105.25
2022-12-05T13:36:41.778Z,101110.53
2022-12-05T13:39:33.717Z,101108.00
2022-12-05T13:42:16.576Z,101114.97
2022-12-05T13:44:55.909Z,101115.34
2022-12-05T13:47:43.156Z,101115.59
2022-12-05T13:50:34.965Z,101132.81
2022-12-05T13:53:24.867Z,101123.88
2022-12-05T13:56:15.578Z,101110.09
2022-12-05T13:58:47.142Z,101085.91
2022-12-05T14:01:27.686Z,101096.31
2022-12-05T14:03:57.251Z,101086.00
2022-12-05T14:06:40.143Z,101091.38
2022-12-05T14:09:17.590Z,101082.31
2022-12-05T14:12:10.369Z,101084.63
2022-12-05T14:15:00.656Z,101093.81
2022-12-05T14:17:36.348Z,101089.69
2022-12-05T14:20:16.123Z,101098.34
2022-12-05T14:22:52.672Z,101097.88
2022-12-05T14:25:34.592Z,101099.19
2022-12-05T14:28:18.475Z,101094.22
2022-12-05T14:31:06.100Z,101081.69
2022-12-05T14:33:34.404Z,101086.75
2022-12-05T14:36:08.371Z,101088.66
2022-12-05T14:38:38.030Z,101087.59
2022-12-05T14:41:23.021Z,101091.19
2022-12-05T14:43:56.578Z,101085.91
2022-12-05T14:46:29.113Z,101088.88
2022-12-05T14:48:57.062Z,101086.41
2022-12-05T14:51:31.567Z,101087.38
2022-12-05T14:54:11.439Z,101089.78
2022-12-05T14:57:10.212Z,101094.53
2022-12-05T15:00:00.060Z,101090.94
2022-12-05T15:02:35.860Z,101093.16
2022-12-05T15:05:19.023Z,101094.72
2022-12-05T15:07:48.327Z,101096.25
2022-12-05T15:10:28.595Z,101087.53
2022-12-05T15:13:03.617Z,101102.84
2022-12-05T15:15:37.550Z,101096.56
2022-12-05T15:18:30.372Z,101098.34
2022-12-05T15:21:05.098Z,101104.25
2022-12-05T15:23:42.652Z,101107.75
2022-12-05T15:29:23.728Z,101108.59
2022-12-05T15:31:55.271Z,101103.84
2022-12-05T15:34:30.987Z,101104.69
2022-12-05T15:37:06.534Z,101107.41
2022-12-05T15:39:58.587Z,101101.22
2022-12-05T15:42:31.017Z,101105.44
2022-12-05T15:45:13.798Z,101108.31
2022-12-05T15:47:43.757Z,101098.78
2022-12-05T15:50:35.291Z,101100.47
2022-12-05T15:53:10.531Z,101095.09
2022-12-05T15:55:53.727Z,101086.97
2022-12-05T15:58:33.682Z,101091.59
2022-12-05T16:01:11.522Z,101090.31
2022-12-05T16:03:51.446Z,101086.22
2022-12-05T16:06:43.915Z,101092.19
2022-12-05T16:09:20.882Z,101102.88
2022-12-05T16:12:01.095Z,101112.44
2022-12-05T16:14:58.432Z,101109.41
2022-12-05T16:17:23.886Z,101113.50
2022-12-05T16:19:51.772Z,101113.38
2022-12-05T16:22:25.431Z,101107.53
2022-12-05T16:25:00.115Z,101110.66
2022-12-05T16:27:33.968Z,101108.44
2022-12-05T16:30:18.807Z,101121.94
2022-12-05T16:32:49.637Z,101126.34
2022-12-05T16:35:31.791Z,101112.81
2022-12-05T16:38:11.293Z,101105.84
2022-12-05T16:40:42.375Z,101112.81
2022-12-05T16:43:23.694Z,101110.78
2022-12-05T16:45:53.218Z,101109.22
2022-12-05T16:48:29.821Z,101109.69
2022-12-05T16:51:26.079Z,101111.19
2022-12-05T16:53:56.458Z,101112.59
2022-12-05T16:56:28.122Z,101106.81
2022-12-05T16:58:57.365Z,101114.97
2022-12-05T17:01:27.141Z,101111.78
2022-12-05T17:03:56.431Z,101111.09
2022-12-05T17:06:26.259Z,101110.47
2022-12-05T17:08:55.105Z,101116.25
2022-12-05T17:11:34.144Z,101114.94
2022-12-05T17:14:02.656Z,101133.13
2022-12-05T17:16:30.341Z,101123.38
2022-12-05T17:18:58.043Z,101121.09
2022-12-05T17:21:30.938Z,101123.28
2022-12-05T17:23:58.590Z,101125.69
2022-12-05T17:26:26.577Z,101129.00
2022-12-05T17:28:54.617Z,101120.38
2022-12-05T17:31:25.013Z,101117.44
2022-12-05T17:33:54.532Z,101110.66
2022-12-05T17:36:22.773Z,101117.03
2022-12-05T17:38:50.641Z,101120.34
2022-12-05T17:41:23.105Z,101120.69
2022-12-05T17:43:51.569Z,101120.91
2022-12-05T17:46:22.635Z,101123.06
2022-12-05T17:48:51.741Z,101121.50
2022-12-05T17:51:20.752Z,101124.66
2022-12-05T17:53:48.854Z,101123.09
2022-12-05T17:56:17.014Z,101122.97
2022-12-05T17:58:44.596Z,101119.91
2022-12-05T18:01:18.128Z,101122.97
2022-12-05T18:03:46.129Z,101125.06
2022-12-05T18:06:13.809Z,101127.59
2022-12-05T18:08:44.091Z,101130.44
2022-12-05T18:11:15.034Z,101128.81
2022-12-05T18:13:43.115Z,101123.09
2022-12-05T18:16:11.188Z,101133.34
2022-12-05T18:18:39.410Z,101134.53
2022-12-05T18:21:12.410Z,101134.34
2022-12-05T18:23:41.288Z,101142.13
2022-12-05T18:26:10.794Z,101144.81
2022-12-05T18:28:39.297Z,101133.38
2022-12-05T18:31:17.312Z,101126.66
2022-12-05T18:33:46.166Z,101125.06
2022-12-05T18:36:16.140Z,101138.00
2022-12-05T18:38:49.598Z,101138.84
2022-12-05T18:41:17.173Z,101139.41
2022-12-05T18:43:44.959Z,101135.66
2022-12-05T18:46:12.769Z,101135.56
2022-12-05T18:48:45.884Z,101141.75
2022-12-05T18:51:24.524Z,101148.19
2022-12-05T18:53:54.141Z,101147.56
2022-12-05T18:56:25.923Z,101146.38
2022-12-05T18:59:17.617Z,101140.00
2022-12-05T19:01:46.446Z,101146.81
2022-12-05T19:04:16.639Z,101157.63
2022-12-05T19:06:55.634Z,101147.97
2022-12-05T19:09:24.937Z,101150.69
2022-12-05T19:11:57.027Z,101145.69
2022-12-05T19:14:27.627Z,101142.50
2022-12-05T19:16:59.770Z,101135.66
2022-12-05T19:19:29.136Z,101138.03
2022-12-05T19:21:58.901Z,101142.53
2022-12-05T19:24:27.176Z,101158.44
2022-12-05T19:26:55.215Z,101154.22
2022-12-05T19:29:22.830Z,101142.63
2022-12-05T19:31:50.725Z,101153.19
2022-12-05T19:34:18.589Z,101147.28
2022-12-05T19:36:46.905Z,101155.25
2022-12-05T19:39:18.855Z,101145.81
2022-12-05T19:41:46.604Z,101146.81
2022-12-05T19:44:15.035Z,101151.88
2022-12-05T19:46:42.990Z,101150.53
2022-12-05T19:49:33.671Z,101159.38
2022-12-05T19:52:02.473Z,101149.78
2022-12-05T19:54:30.576Z,101160.88
2022-12-05T19:57:00.639Z,101157.66
2022-12-05T19:59:28.229Z,101155.63
2022-12-05T20:01:55.883Z,101158.91
2022-12-05T20:04:23.488Z,101163.91
2022-12-05T20:06:51.059Z,101163.91
2022-12-05T20:09:21.387Z,101154.22
2022-12-05T20:11:55.580Z,101159.53
2022-12-05T20:14:25.364Z,101154.09
2022-12-05T20:16:54.346Z,101153.88
2022-12-05T20:19:23.439Z,101157.22
2022-12-05T20:21:51.579Z,101163.50
2022-12-05T20:24:19.887Z,101167.53
2022-12-05T20:26:47.524Z,101168.63
2022-12-05T20:29:15.125Z,101172.34
2022-12-05T20:31:43.431Z,101175.97
2022-12-05T20:34:13.689Z,101169.81
2022-12-05T20:36:42.975Z,101170.59
2022-12-05T20:39:15.182Z,101167.53
2022-12-05T20:41:43.753Z,101171.94
2022-12-05T20:44:14.372Z,101185.78
2022-12-05T20:46:42.293Z,101181.56
2022-12-05T20:49:12.021Z,101175.91
2022-12-05T20:51:42.332Z,101169.47
2022-12-05T20:54:12.894Z,101166.28
2022-12-05T20:56:41.115Z,101172.00
2022-12-05T20:59:14.028Z,101176.31
2022-12-05T21:01:42.884Z,101171.91
2022-12-05T21:04:12.776Z,101173.78
2022-12-05T21:06:43.041Z,101177.78
2022-12-05T21:09:16.103Z,101168.81
2022-12-05T21:11:44.117Z,101173.38
2022-12-05T21:14:12.440Z,101173.84
2022-12-05T21:16:40.535Z,101176.75
2022-12-05T21:19:08.866Z,101174.66
2022-12-05T21:21:36.675Z,101176.44
2022-12-05T21:24:05.567Z,101186.22
2022-12-05T21:26:34.647Z,101174.91
2022-12-05T21:29:03.497Z,101180.75
2022-12-05T21:31:33.918Z,101175.50
2022-12-05T21:34:05.156Z,101180.28
2022-12-05T21:36:36.567Z,101176.16
2022-12-05T21:39:06.667Z,101176.94
2022-12-05T21:41:34.875Z,101177.94
2022-12-05T21:44:02.518Z,101175.91
2022-12-05T21:46:30.550Z,101169.47
2022-12-05T21:48:58.202Z,101159.47
2022-12-05T21:51:26.703Z,101169.66
2022-12-05T21:53:54.670Z,101175.22
2022-12-05T21:56:23.495Z,101166.69
2022-12-05T21:58:51.869Z,101161.47
2022-12-05T22:01:23.209Z,101166.50
2022-12-05T22:03:53.013Z,101163.72
2022-12-05T22:06:20.733Z,101166.31
2022-12-05T22:08:48.504Z,101172.81
2022-12-05T22:11:19.730Z,101175.19
2022-12-05T22:13:49.133Z,101173.66
2022-12-05T22:16:18.422Z,101171.97
2022-12-05T22:18:47.102Z,101170.03
2022-12-05T22:21:19.871Z,101156.75
2022-12-05T22:23:49.026Z,101162.34
2022-12-05T22:26:19.439Z,101156.19
2022-12-05T22:28:49.453Z,101149.44
2022-12-05T22:31:18.086Z,101145.91
2022-12-05T22:33:46.231Z,101147.59
2022-12-05T22:36:16.261Z,101147.53
2022-12-05T22:38:46.998Z,101144.00
2022-12-05T22:41:25.801Z,101139.44
2022-12-05T22:43:59.616Z,101144.91
2022-12-05T22:46:28.623Z,101141.31
2022-12-05T22:48:56.702Z,101139.00
2022-12-05T22:51:25.201Z,101138.78
2022-12-05T22:53:54.230Z,101132.69
2022-12-05T22:56:23.546Z,101136.56
2022-12-05T22:58:55.010Z,101133.16
2022-12-05T23:01:24.531Z,101136.25
2022-12-05T23:04:10.774Z,101135.47
2022-12-05T23:06:38.913Z,101134.41
2022-12-05T23:09:09.985Z,101138.69
2022-12-05T23:11:38.148Z,101140.63
2022-12-05T23:14:08.441Z,101145.16
2022-12-05T23:16:37.281Z,101139.72
2022-12-05T23:19:06.268Z,101141.47
2022-12-05T23:21:37.005Z,101138.25
2022-12-05T23:24:11.541Z,101143.00
2022-12-05T23:26:44.667Z,101138.47
2022-12-05T23:29:14.257Z,101135.16
2022-12-05T23:31:43.360Z,101140.38
2022-12-05T23:34:12.120Z,101137.94
2022-12-05T23:36:39.968Z,101142.88
2022-12-05T23:39:07.847Z,101145.25
2022-12-05T23:41:36.266Z,101140.56
2022-12-05T23:44:04.154Z,101125.00
2022-12-05T23:46:32.426Z,101132.81
2022-12-05T23:49:00.344Z,101120.28
2022-12-05T23:51:30.219Z,101123.44
2022-12-05T23:53:59.963Z,101124.34
2022-12-05T23:56:31.221Z,101127.13
2022-12-05T23:58:59.238Z,101124.41
